Flight Track Log - Related Links

Times and Time Zones

All times are in EDT time to prevent confusion due to time zone crossing. See the N560MM flight status page for this flight to view local times or setup timezone preferences in your user account.

Time Position Orientation Groundspeed Altitude Reporting Facility
EDT Latitude Longitude Course Direction KTS MPH feet Rate Location/Type
Sun 06:32:14 PM 39.2533 -106.8789 278° West 174 200 9,400  Level Denver Center
Sun 06:33:16 PM 39.2600 -106.9386 278° West 170 196 11,600 2,226 Climbing Denver Center
Sun 06:34:18 PM 39.2664 -107.0053 277° West 188 216 14,000 2,129 Climbing Denver Center
Sun 06:35:20 PM 39.2122 -107.0192 191° South 209 241 16,000 1,984 Climbing Denver Center
Sun 06:36:22 PM 39.1486 -107.0292 187° South 226 260 18,100 2,015 Climbing Denver Center
Sun 06:37:37 PM 39.0875 -106.9747 145° Southeast 252 290 20,600 2,365 Climbing Denver Center
Sun 06:38:39 PM 39.0225 -106.8878 134° Southeast 264 304 23,500 2,371 Climbing Denver Center
Sun 06:39:41 PM 38.9742 -106.8200 133° Southeast 268 308 25,500 2,081 Climbing Denver Center
Sun 06:40:43 PM 38.9192 -106.7406 132° Southeast 266 306 27,800 1,984 Climbing Denver Center
Sun 06:41:45 PM 38.8747 -106.6775 132° Southeast 262 302 29,600 1,463 Climbing Denver Center
Sun 06:42:46 PM 38.8353 -106.6225 133° Southeast 260 299 30,800 1,355 Climbing Denver Center
Sun 06:43:49 PM 38.7753 -106.5392 133° Southeast 265 305 32,400 1,645 Climbing Denver Center
Sun 06:44:50 PM 38.7150 -106.4536 132° Southeast 268 308 34,200 1,500 Climbing Denver Center
Sun 06:46:05 PM 38.6550 -106.3694 132° Southeast 267 307 35,800 1,095 Climbing Denver Center
Sun 06:47:07 PM 38.6044 -106.2983 132° Southeast 270 311 36,700 585 Climbing Denver Center
Sun 06:48:08 PM 38.5594 -106.2375 133° Southeast 287 330 37,000 146 Climbing Denver Center
Sun 06:49:10 PM 38.4753 -106.1178 132° Southeast 337 388 37,000  Level Denver Center
Sun 06:50:12 PM 38.4078 -106.0253 133° Southeast 365 420 37,000  Level Denver Center
Sun 06:51:14 PM 38.3381 -105.9272 132° Southeast 386 444 37,000 97 Level Denver Center
Sun 06:52:16 PM 38.2553 -105.8136 133° Southeast 391 450 37,200 968 Climbing Denver Center
Sun 06:53:18 PM 38.1878 -105.7203 133° Southeast 376 433 39,000 871 Climbing Denver Center
Sun 06:54:20 PM 38.1097 -105.6153 133° Southeast 368 423 39,000  Level Denver Center
Sun 06:55:22 PM 38.0411 -105.5206 133° Southeast 379 436 39,000  Level Denver Center
Sun 06:56:23 PM 37.9561 -105.4058 133° Southeast 396 456 39,000  Level Denver Center
Sun 06:57:25 PM 37.8819 -105.3050 133° Southeast 406 467 39,000  Level Denver Center
Sun 06:58:40 PM 37.7833 -105.1719 133° Southeast 407 468 39,000  Level Denver Center
Sun 06:59:42 PM 37.7094 -105.0714 133° Southeast 407 468 39,000  Level Denver Center
Sun 07:00:44 PM 37.6225 -104.9539 133° Southeast 410 472 39,000  Level Denver Center
Sun 07:01:45 PM 37.5478 -104.8547 134° Southeast 409 471 39,000  Level Denver Center
Sun 07:02:47 PM 37.4603 -104.7389 134° Southeast 410 472 39,000  Level Denver Center
Sun 07:03:49 PM 37.3853 -104.6394 133° Southeast 411 473 39,000  Level Denver Center
Sun 07:04:51 PM 37.2992 -104.5253 133° Southeast 406 467 39,000  Level Denver Center
Sun 07:05:53 PM 37.2250 -104.4272 134° Southeast 406 467 39,000  Level Denver Center
Sun 07:06:55 PM 37.1383 -104.3142 134° Southeast 405 466 39,000  Level Denver Center
Sun 07:07:37 PM 37.0897 -104.2481 133° Southeast 406 467 39,000  Level Albuquerque Center
Sun 07:08:38 PM 37.0028 -104.1353 134° Southeast 405 466 39,000  Level Albuquerque Center
Sun 07:09:40 PM 36.9281 -104.0392 134° Southeast 405 466 39,000  Level Albuquerque Center
Sun 07:10:41 PM 36.8417 -103.9261 134° Southeast 404 465 39,000  Level Albuquerque Center
Sun 07:11:43 PM 36.7661 -103.8294 134° Southeast 406 467 39,000  Level Albuquerque Center
Sun 07:12:45 PM 36.6900 -103.7306 134° Southeast 410 472 39,000  Level Albuquerque Center
Sun 07:13:46 PM 36.6106 -103.6275 134° Southeast 412 474 39,000  Level Albuquerque Center
Sun 07:14:48 PM 36.5150 -103.5042 134° Southeast 417 480 39,000 -439 Level Albuquerque Center
Sun 07:15:49 PM 36.4328 -103.4008 135° Southeast 417 480 38,100 -1,073 Descending Albuquerque Center
Sun 07:16:51 PM 36.3483 -103.2922 134° Southeast 427 491 36,800 -1,268 Descending Albuquerque Center
Sun 07:17:52 PM 36.2636 -103.1842 134° Southeast 431 496 35,500 -1,268 Descending Albuquerque Center
Sun 07:18:54 PM 36.1803 -103.0769 134° Southeast 428 493 34,200 -1,268 Descending Albuquerque Center
Sun 07:19:55 PM 36.0978 -102.9753 135° Southeast 419 482 32,900 -1,220 Descending Albuquerque Center
Sun 07:20:57 PM 36.0233 -102.8808 134° Southeast 413 475 31,700 -1,220 Descending Albuquerque Center
Sun 07:21:58 PM 35.9447 -102.7825 135° Southeast 405 466 30,400 -1,415 Descending Albuquerque Center
Sun 07:23:00 PM 35.8519 -102.6664 135° Southeast 399 459 28,800 -1,415 Descending Albuquerque Center
Sun 07:24:01 PM 35.7756 -102.5717 135° Southeast 393 452 27,500 -1,463 Descending Albuquerque Center
Sun 07:25:03 PM 35.7053 -102.4825 134° Southeast 372 428 25,800 -2,341 Descending Albuquerque Center
Sun 07:26:04 PM 35.6356 -102.3983 136° Southeast 357 411 22,700 -3,049 Descending Albuquerque Center
Sun 07:27:05 PM 35.5708 -102.3175 135° Southeast 340 391 19,600 -2,732 Descending Albuquerque Center
Sun 07:28:07 PM 35.5119 -102.2453 135° Southeast 311 358 17,100 -2,878 Descending Albuquerque Center
Sun 07:29:08 PM 35.4558 -102.1750 134° Southeast 295 339 13,700 -2,976 Descending Albuquerque Center
Sun 07:30:10 PM 35.3992 -102.1061 135° Southeast 289 333 11,000 -2,585 Descending Albuquerque Center
Sun 07:31:11 PM 35.3417 -102.0356 135° Southeast 249 287 8,400 -1,756 Descending Albuquerque Center
Sun 07:32:13 PM 35.3028 -101.9844 133° Southeast 243 280 7,400 -968 Descending Albuquerque Center
Sun 07:34:00 PM 35.1786 -101.8453 141° Southeast  Level FlightAware Approximate
Sun 07:41:00 PM 35.1699 -101.8259 90° East  Level Estimated
Sun 07:42:00 PM 35.1699 -101.8259 90° East  Level Estimated
Sun 07:43:00 PM 35.1699 -101.8259 90° East  Level Estimated

Login

Don't have an account? Register now (free) for customized features, flight alerts, and more!